sensor_id;sensor_type;location;lat;lon;timestamp;temperature;humidity
37896;DHT22;23733;53.254;10.430;2022-09-09T14:54:44;18.20;99.90
37896;DHT22;23733;53.254;10.430;2022-09-09T14:57:10;18.20;99.90
37896;DHT22;23733;53.254;10.430;2022-09-09T14:59:36;18.20;99.90
37896;DHT22;23733;53.254;10.430;2022-09-09T15:02:02;18.10;99.90
37896;DHT22;23733;53.254;10.430;2022-09-09T15:04:29;18.10;99.90
37896;DHT22;23733;53.254;10.430;2022-09-09T15:09:24;18.10;99.90
37896;DHT22;23733;53.254;10.430;2022-09-09T15:11:50;18.10;99.90
37896;DHT22;23733;53.254;10.430;2022-09-09T15:14:16;18.00;99.90
37896;DHT22;23733;53.254;10.430;2022-09-09T15:16:43;18.00;99.90
37896;DHT22;23733;53.254;10.430;2022-09-09T15:19:09;17.90;99.90
37896;DHT22;23733;53.254;10.430;2022-09-09T15:21:36;18.00;99.90
37896;DHT22;23733;53.254;10.430;2022-09-09T15:24:03;17.90;99.90
37896;DHT22;23733;53.254;10.430;2022-09-09T15:26:30;17.90;99.90
37896;DHT22;23733;53.254;10.430;2022-09-09T15:28:56;18.00;99.90
37896;DHT22;23733;53.254;10.430;2022-09-09T15:31:27;17.90;99.90
37896;DHT22;23733;53.254;10.430;2022-09-09T15:33:56;17.90;99.90
37896;DHT22;23733;53.254;10.430;2022-09-09T15:36:30;17.90;99.90
37896;DHT22;23733;53.254;10.430;2022-09-09T15:38:58;18.00;99.90
37896;DHT22;23733;53.254;10.430;2022-09-09T15:41:25;18.00;99.90
37896;DHT22;23733;53.254;10.430;2022-09-09T15:43:54;18.10;99.90
37896;DHT22;23733;53.254;10.430;2022-09-09T15:46:37;18.10;99.90
37896;DHT22;23733;53.254;10.430;2022-09-09T15:49:13;18.10;99.90
37896;DHT22;23733;53.254;10.430;2022-09-09T15:51:44;18.10;99.90
37896;DHT22;23733;53.254;10.430;2022-09-09T15:54:15;18.10;99.90
37896;DHT22;23733;53.254;10.430;2022-09-09T15:56:45;18.10;99.90
37896;DHT22;23733;53.254;10.430;2022-09-09T15:59:12;18.10;99.90
37896;DHT22;23733;53.254;10.430;2022-09-09T16:01:38;18.20;99.90
37896;DHT22;23733;53.254;10.430;2022-09-09T16:04:05;18.20;99.90
37896;DHT22;23733;53.254;10.430;2022-09-09T16:06:32;18.10;99.90
37896;DHT22;23733;53.254;10.430;2022-09-09T16:08:59;18.20;99.90
37896;DHT22;23733;53.254;10.430;2022-09-09T16:11:29;18.20;99.90
37896;DHT22;23733;53.254;10.430;2022-09-09T16:13:55;18.20;99.90
37896;DHT22;23733;53.254;10.430;2022-09-09T16:16:24;18.20;99.90
37896;DHT22;23733;53.254;10.430;2022-09-09T16:18:52;18.20;99.90
37896;DHT22;23733;53.254;10.430;2022-09-09T16:21:22;18.30;99.90
37896;DHT22;23733;53.254;10.430;2022-09-09T16:23:51;18.40;99.90
37896;DHT22;23733;53.254;10.430;2022-09-09T16:26:18;18.40;99.90
37896;DHT22;23733;53.254;10.430;2022-09-09T16:28:45;18.40;99.90
37896;DHT22;23733;53.254;10.430;2022-09-09T16:31:18;18.40;99.90
37896;DHT22;23733;53.254;10.430;2022-09-09T16:33:45;18.40;99.90
37896;DHT22;23733;53.254;10.430;2022-09-09T16:36:14;18.30;99.90
37896;DHT22;23733;53.254;10.430;2022-09-09T16:38:41;18.30;99.90
37896;DHT22;23733;53.254;10.430;2022-09-09T16:41:09;18.30;99.90
37896;DHT22;23733;53.254;10.430;2022-09-09T16:43:36;18.30;99.90
37896;DHT22;23733;53.254;10.430;2022-09-09T16:46:09;18.30;99.90
37896;DHT22;23733;53.254;10.430;2022-09-09T16:48:36;18.30;99.90
37896;DHT22;23733;53.254;10.430;2022-09-09T16:51:05;18.30;99.90
37896;DHT22;23733;53.254;10.430;2022-09-09T16:53:32;18.30;99.90
37896;DHT22;23733;53.254;10.430;2022-09-09T16:56:08;18.30;99.90
37896;DHT22;23733;53.254;10.430;2022-09-09T16:58:34;18.20;99.90
37896;DHT22;23733;53.254;10.430;2022-09-09T17:01:01;18.30;99.90
37896;DHT22;23733;53.254;10.430;2022-09-09T17:03:29;18.30;99.90
37896;DHT22;23733;53.254;10.430;2022-09-09T17:05:55;18.20;99.90
37896;DHT22;23733;53.254;10.430;2022-09-09T17:08:26;18.20;99.90
37896;DHT22;23733;53.254;10.430;2022-09-09T17:10:52;18.20;99.90
37896;DHT22;23733;53.254;10.430;2022-09-09T17:13:18;18.20;99.90
37896;DHT22;23733;53.254;10.430;2022-09-09T17:15:45;18.10;99.90
37896;DHT22;23733;53.254;10.430;2022-09-09T17:18:12;18.20;99.90
37896;DHT22;23733;53.254;10.430;2022-09-09T17:20:40;18.20;99.90
37896;DHT22;23733;53.254;10.430;2022-09-09T17:23:08;18.20;99.90
37896;DHT22;23733;53.254;10.430;2022-09-09T17:25:34;18.10;99.90
37896;DHT22;23733;53.254;10.430;2022-09-09T17:28:01;18.10;99.90
37896;DHT22;23733;53.254;10.430;2022-09-09T17:30:33;18.10;99.90
37896;DHT22;23733;53.254;10.430;2022-09-09T17:33:00;18.20;99.90
37896;DHT22;23733;53.254;10.430;2022-09-09T17:35:26;18.10;99.90
37896;DHT22;23733;53.254;10.430;2022-09-09T17:37:53;18.10;99.90
37896;DHT22;23733;53.254;10.430;2022-09-09T17:40:20;18.10;99.90
37896;DHT22;23733;53.254;10.430;2022-09-09T17:42:46;18.10;99.90
37896;DHT22;23733;53.254;10.430;2022-09-09T17:45:13;18.10;99.90
37896;DHT22;23733;53.254;10.430;2022-09-09T17:47:40;18.00;99.90
37896;DHT22;23733;53.254;10.430;2022-09-09T17:50:09;18.00;99.90
37896;DHT22;23733;53.254;10.430;2022-09-09T17:52:39;17.90;99.90
37896;DHT22;23733;53.254;10.430;2022-09-09T17:55:07;17.90;99.90
37896;DHT22;23733;53.254;10.430;2022-09-09T17:57:34;17.90;99.90
37896;DHT22;23733;53.254;10.430;2022-09-09T18:00:01;17.90;99.90
37896;DHT22;23733;53.254;10.430;2022-09-09T18:02:27;17.90;99.90
37896;DHT22;23733;53.254;10.430;2022-09-09T18:04:53;17.90;99.90
37896;DHT22;23733;53.254;10.430;2022-09-09T18:07:19;17.90;99.90
37896;DHT22;23733;53.254;10.430;2022-09-09T18:09:45;17.90;99.90
37896;DHT22;23733;53.254;10.430;2022-09-09T18:12:11;17.80;99.90
37896;DHT22;23733;53.254;10.430;2022-09-09T18:14:37;17.80;99.90
37896;DHT22;23733;53.254;10.430;2022-09-09T18:17:03;17.80;99.90
37896;DHT22;23733;53.254;10.430;2022-09-09T18:19:31;17.80;99.90
37896;DHT22;23733;53.254;10.430;2022-09-09T18:21:58;17.80;99.90
37896;DHT22;23733;53.254;10.430;2022-09-09T18:24:24;17.70;99.90
37896;DHT22;23733;53.254;10.430;2022-09-09T18:26:50;17.70;99.90
37896;DHT22;23733;53.254;10.430;2022-09-09T18:29:18;17.60;99.90
37896;DHT22;23733;53.254;10.430;2022-09-09T18:31:46;17.60;99.90
37896;DHT22;23733;53.254;10.430;2022-09-09T18:34:14;17.60;99.90
37896;DHT22;23733;53.254;10.430;2022-09-09T18:36:42;17.60;99.90
37896;DHT22;23733;53.254;10.430;2022-09-09T18:39:11;17.50;99.90
37896;DHT22;23733;53.254;10.430;2022-09-09T18:41:45;17.50;99.90
37896;DHT22;23733;53.254;10.430;2022-09-09T18:44:17;17.50;99.90
37896;DHT22;23733;53.254;10.430;2022-09-09T18:46:44;17.50;99.90
37896;DHT22;23733;53.254;10.430;2022-09-09T18:49:11;17.50;99.90
37896;DHT22;23733;53.254;10.430;2022-09-09T18:51:39;17.40;99.90
37896;DHT22;23733;53.254;10.430;2022-09-09T18:54:10;17.40;99.90
37896;DHT22;23733;53.254;10.430;2022-09-09T18:56:36;17.40;99.90
37896;DHT22;23733;53.254;10.430;2022-09-09T18:59:06;17.40;99.90
37896;DHT22;23733;53.254;10.430;2022-09-09T19:01:33;17.40;99.90
37896;DHT22;23733;53.254;10.430;2022-09-09T19:04:02;17.40;99.90
37896;DHT22;23733;53.254;10.430;2022-09-09T19:06:30;17.40;99.90
37896;DHT22;23733;53.254;10.430;2022-09-09T19:08:56;17.40;99.90
37896;DHT22;23733;53.254;10.430;2022-09-09T19:11:24;17.40;99.90
37896;DHT22;23733;53.254;10.430;2022-09-09T19:13:56;17.30;99.90
37896;DHT22;23733;53.254;10.430;2022-09-09T19:16:25;17.30;99.90
37896;DHT22;23733;53.254;10.430;2022-09-09T19:18:52;17.20;99.90
37896;DHT22;23733;53.254;10.430;2022-09-09T19:21:24;17.20;99.90
37896;DHT22;23733;53.254;10.430;2022-09-09T19:24:02;17.20;99.90
37896;DHT22;23733;53.254;10.430;2022-09-09T19:26:33;17.20;99.90
37896;DHT22;23733;53.254;10.430;2022-09-09T19:29:00;17.20;99.90
37896;DHT22;23733;53.254;10.430;2022-09-09T19:31:27;17.10;99.90
37896;DHT22;23733;53.254;10.430;2022-09-09T19:33:55;17.10;99.90
37896;DHT22;23733;53.254;10.430;2022-09-09T19:36:23;17.10;99.90
37896;DHT22;23733;53.254;10.430;2022-09-09T19:38:52;17.10;99.90
37896;DHT22;23733;53.254;10.430;2022-09-09T19:41:24;17.10;99.90
37896;DHT22;23733;53.254;10.430;2022-09-09T19:43:51;17.10;99.90
37896;DHT22;23733;53.254;10.430;2022-09-09T19:46:21;17.00;99.90
37896;DHT22;23733;53.254;10.430;2022-09-09T19:48:47;17.00;99.90
37896;DHT22;23733;53.254;10.430;2022-09-09T19:51:15;16.90;99.90
37896;DHT22;23733;53.254;10.430;2022-09-09T19:53:44;16.90;99.90
37896;DHT22;23733;53.254;10.430;2022-09-09T19:56:11;16.90;99.90
37896;DHT22;23733;53.254;10.430;2022-09-09T19:58:39;16.90;99.90
37896;DHT22;23733;53.254;10.430;2022-09-09T20:01:07;16.90;99.90
37896;DHT22;23733;53.254;10.430;2022-09-09T20:03:34;16.90;99.90
37896;DHT22;23733;53.254;10.430;2022-09-09T20:06:00;16.90;99.90
37896;DHT22;23733;53.254;10.430;2022-09-09T20:08:26;16.90;99.90
37896;DHT22;23733;53.254;10.430;2022-09-09T20:10:53;16.80;99.90
37896;DHT22;23733;53.254;10.430;2022-09-09T20:13:19;16.80;99.90
37896;DHT22;23733;53.254;10.430;2022-09-09T20:15:54;16.80;99.90
37896;DHT22;23733;53.254;10.430;2022-09-09T20:18:21;16.80;99.90
37896;DHT22;23733;53.254;10.430;2022-09-09T20:20:47;16.80;99.90
37896;DHT22;23733;53.254;10.430;2022-09-09T20:23:13;16.80;99.90
37896;DHT22;23733;53.254;10.430;2022-09-09T20:25:40;16.70;99.90
37896;DHT22;23733;53.254;10.430;2022-09-09T20:28:06;16.80;99.90
37896;DHT22;23733;53.254;10.430;2022-09-09T20:30:32;16.80;99.90
37896;DHT22;23733;53.254;10.430;2022-09-09T20:33:03;16.80;99.90
37896;DHT22;23733;53.254;10.430;2022-09-09T20:35:29;16.70;99.90
37896;DHT22;23733;53.254;10.430;2022-09-09T20:37:56;16.70;99.90
37896;DHT22;23733;53.254;10.430;2022-09-09T20:40:22;16.70;99.90
37896;DHT22;23733;53.254;10.430;2022-09-09T20:42:48;16.70;99.90
37896;DHT22;23733;53.254;10.430;2022-09-09T20:45:16;16.70;99.90
37896;DHT22;23733;53.254;10.430;2022-09-09T20:47:42;16.60;99.90
37896;DHT22;23733;53.254;10.430;2022-09-09T20:50:08;16.60;99.90
37896;DHT22;23733;53.254;10.430;2022-09-09T20:52:35;16.50;99.90
37896;DHT22;23733;53.254;10.430;2022-09-09T20:55:01;16.50;99.90
37896;DHT22;23733;53.254;10.430;2022-09-09T20:57:27;16.50;99.90
37896;DHT22;23733;53.254;10.430;2022-09-09T20:59:53;16.50;99.90
37896;DHT22;23733;53.254;10.430;2022-09-09T21:02:19;16.40;99.90
37896;DHT22;23733;53.254;10.430;2022-09-09T21:04:45;16.40;99.90
37896;DHT22;23733;53.254;10.430;2022-09-09T21:07:12;16.40;99.90
37896;DHT22;23733;53.254;10.430;2022-09-09T21:09:38;16.40;99.90
37896;DHT22;23733;53.254;10.430;2022-09-09T21:12:06;16.30;99.90
37896;DHT22;23733;53.254;10.430;2022-09-09T21:14:32;16.30;99.90
37896;DHT22;23733;53.254;10.430;2022-09-09T21:16:58;16.20;99.90
37896;DHT22;23733;53.254;10.430;2022-09-09T21:19:24;16.10;99.90
37896;DHT22;23733;53.254;10.430;2022-09-09T21:21:50;16.10;99.90
37896;DHT22;23733;53.254;10.430;2022-09-09T21:24:16;16.20;99.90
37896;DHT22;23733;53.254;10.430;2022-09-09T21:26:42;16.20;99.90
37896;DHT22;23733;53.254;10.430;2022-09-09T21:29:08;16.20;99.90
37896;DHT22;23733;53.254;10.430;2022-09-09T21:31:34;16.20;99.90
37896;DHT22;23733;53.254;10.430;2022-09-09T21:34:02;16.20;99.90
37896;DHT22;23733;53.254;10.430;2022-09-09T21:36:28;16.30;99.90
37896;DHT22;23733;53.254;10.430;2022-09-09T21:38:56;16.30;99.90
37896;DHT22;23733;53.254;10.430;2022-09-09T21:41:24;16.30;99.90
37896;DHT22;23733;53.254;10.430;2022-09-09T21:43:52;16.20;99.90
37896;DHT22;23733;53.254;10.430;2022-09-09T21:46:19;16.10;99.90
37896;DHT22;23733;53.254;10.430;2022-09-09T21:48:45;16.00;99.90
37896;DHT22;23733;53.254;10.430;2022-09-09T21:51:14;16.00;99.90
37896;DHT22;23733;53.254;10.430;2022-09-09T21:53:40;16.00;99.90
37896;DHT22;23733;53.254;10.430;2022-09-09T21:56:10;16.10;99.90
37896;DHT22;23733;53.254;10.430;2022-09-09T21:58:36;16.10;99.90
37896;DHT22;23733;53.254;10.430;2022-09-09T22:01:08;16.10;99.90
37896;DHT22;23733;53.254;10.430;2022-09-09T22:03:36;16.10;99.90
37896;DHT22;23733;53.254;10.430;2022-09-09T22:06:05;16.10;99.90
37896;DHT22;23733;53.254;10.430;2022-09-09T22:08:31;16.10;99.90
37896;DHT22;23733;53.254;10.430;2022-09-09T22:11:05;16.10;99.90
37896;DHT22;23733;53.254;10.430;2022-09-09T22:13:32;16.00;99.90
37896;DHT22;23733;53.254;10.430;2022-09-09T22:16:02;16.00;99.90
37896;DHT22;23733;53.254;10.430;2022-09-09T22:18:28;16.10;99.90
37896;DHT22;23733;53.254;10.430;2022-09-09T22:20:57;16.10;99.90
37896;DHT22;23733;53.254;10.430;2022-09-09T22:23:24;16.20;99.90
37896;DHT22;23733;53.254;10.430;2022-09-09T22:25:52;16.20;99.90
37896;DHT22;23733;53.254;10.430;2022-09-09T22:28:20;16.20;99.90
37896;DHT22;23733;53.254;10.430;2022-09-09T22:30:47;16.20;99.90
37896;DHT22;23733;53.254;10.430;2022-09-09T22:33:13;16.20;99.90
37896;DHT22;23733;53.254;10.430;2022-09-09T22:35:40;16.20;99.90
37896;DHT22;23733;53.254;10.430;2022-09-09T22:38:10;16.30;99.90
37896;DHT22;23733;53.254;10.430;2022-09-09T22:40:38;16.20;99.90
37896;DHT22;23733;53.254;10.430;2022-09-09T22:43:06;16.20;99.90
37896;DHT22;23733;53.254;10.430;2022-09-09T22:45:35;16.20;99.90
37896;DHT22;23733;53.254;10.430;2022-09-09T22:48:02;16.20;99.90
37896;DHT22;23733;53.254;10.430;2022-09-09T22:50:28;16.20;99.90
37896;DHT22;23733;53.254;10.430;2022-09-09T22:52:57;16.20;99.90
37896;DHT22;23733;53.254;10.430;2022-09-09T22:55:23;16.20;99.90
37896;DHT22;23733;53.254;10.430;2022-09-09T22:57:50;16.10;99.90
37896;DHT22;23733;53.254;10.430;2022-09-09T23:00:16;16.10;99.90
37896;DHT22;23733;53.254;10.430;2022-09-09T23:02:43;16.10;99.90
37896;DHT22;23733;53.254;10.430;2022-09-09T23:05:09;16.10;99.90
37896;DHT22;23733;53.254;10.430;2022-09-09T23:07:35;16.10;99.90
37896;DHT22;23733;53.254;10.430;2022-09-09T23:10:03;16.10;99.90
37896;DHT22;23733;53.254;10.430;2022-09-09T23:12:30;16.10;99.90
37896;DHT22;23733;53.254;10.430;2022-09-09T23:14:56;16.10;99.90
37896;DHT22;23733;53.254;10.430;2022-09-09T23:17:22;16.10;99.90
37896;DHT22;23733;53.254;10.430;2022-09-09T23:19:49;16.10;99.90
37896;DHT22;23733;53.254;10.430;2022-09-09T23:22:22;16.00;99.90
37896;DHT22;23733;53.254;10.430;2022-09-09T23:24:49;16.00;99.90
37896;DHT22;23733;53.254;10.430;2022-09-09T23:27:15;16.10;99.90
37896;DHT22;23733;53.254;10.430;2022-09-09T23:29:41;16.10;99.90
37896;DHT22;23733;53.254;10.430;2022-09-09T23:32:07;16.10;99.90
37896;DHT22;23733;53.254;10.430;2022-09-09T23:34:33;16.10;99.90
37896;DHT22;23733;53.254;10.430;2022-09-09T23:37:00;16.00;99.90
37896;DHT22;23733;53.254;10.430;2022-09-09T23:39:26;16.00;99.90
37896;DHT22;23733;53.254;10.430;2022-09-09T23:41:52;16.00;99.90
37896;DHT22;23733;53.254;10.430;2022-09-09T23:44:18;16.00;99.90
37896;DHT22;23733;53.254;10.430;2022-09-09T23:46:44;16.00;99.90
37896;DHT22;23733;53.254;10.430;2022-09-09T23:49:10;15.90;99.90
37896;DHT22;23733;53.254;10.430;2022-09-09T23:51:36;15.90;99.90
37896;DHT22;23733;53.254;10.430;2022-09-09T23:54:04;15.90;99.90
37896;DHT22;23733;53.254;10.430;2022-09-09T23:56:33;15.90;99.90
37896;DHT22;23733;53.254;10.430;2022-09-09T23:58:59;15.90;99.90
